Time;durP1;ratioP1;P1;durP2;ratioP2;P2;SDS_P1;SDS_P2;PMS_P1;PMS_P2;Temp;Humidity;BMP_temperature;BMP_pressure;BME280_temperature;BME280_humidity;BME280_pressure;Samples;Min_cycle;Max_cycle;Signal;HPM_P1;HPM_P2
2023/04/20 00:01:46;;;;;;;5.67;3.50;;;;;;;;;;5006499;28;20210;-74
2023/04/20 00:04:14;;;;;;;9.00;4.47;;;;;;;;;;5011481;28;20207;-74
2023/04/20 00:06:41;;;;;;;6.10;3.77;;;;;;;;;;5010011;28;20236;-75
2023/04/20 00:09:07;;;;;;;6.63;3.77;;;;;;;;;;4990269;28;20665;-74
2023/04/20 00:11:33;;;;;;;7.10;4.07;;;;;;;;;;4991148;28;20666;-74
2023/04/20 00:13:59;;;;;;;9.70;4.90;;;;;;;;;;4991627;28;20187;-74
2023/04/20 00:16:25;;;;;;;10.07;4.77;;;;;;;;;;4992381;28;20192;-74
2023/04/20 00:18:52;;;;;;;8.97;4.53;;;;;;;;;;4990626;28;20184;-74
2023/04/20 00:21:22;;;;;;;8.60;4.20;;;;;;;;;;4998751;28;20192;-74
2023/04/20 00:23:49;;;;;;;7.50;3.73;;;;;;;;;;5010034;28;20321;-74
2023/04/20 00:26:16;;;;;;;5.90;3.90;;;;;;;;;;5009852;28;20702;-74
2023/04/20 00:28:44;;;;;;;6.67;3.77;;;;;;;;;;5011124;28;20424;-74
2023/04/20 00:31:11;;;;;;;4.30;3.50;;;;;;;;;;5010256;28;20202;-74
2023/04/20 00:33:37;;;;;;;4.67;3.60;;;;;;;;;;5011284;28;20183;-74
2023/04/20 00:36:03;;;;;;;5.43;3.80;;;;;;;;;;5009295;28;20230;-74
2023/04/20 00:38:29;;;;;;;6.80;3.93;;;;;;;;;;4993824;28;20674;-74
2023/04/20 00:40:58;;;;;;;8.33;4.37;;;;;;;;;;5010299;28;20211;-74
2023/04/20 00:43:25;;;;;;;7.23;4.73;;;;;;;;;;5009710;28;20206;-74
2023/04/20 00:45:51;;;;;;;7.50;4.30;;;;;;;;;;5003719;28;20202;-74
2023/04/20 00:48:18;;;;;;;6.80;3.97;;;;;;;;;;5009928;28;20227;-74
2023/04/20 00:50:44;;;;;;;9.37;4.70;;;;;;;;;;5008327;28;20187;-74
2023/04/20 00:53:11;;;;;;;5.17;3.60;;;;;;;;;;5009968;28;20183;-74
2023/04/20 00:55:37;;;;;;;5.47;3.70;;;;;;;;;;5009789;28;20202;-75
2023/04/20 00:58:04;;;;;;;4.70;3.70;;;;;;;;;;5010148;28;20202;-74
2023/04/20 01:00:32;;;;;;;5.73;4.13;;;;;;;;;;5009675;28;20203;-74
2023/04/20 01:02:59;;;;;;;5.10;3.93;;;;;;;;;;5010586;28;20270;-74
2023/04/20 01:05:25;;;;;;;4.63;3.40;;;;;;;;;;5008662;28;20693;-75
2023/04/20 01:07:51;;;;;;;4.43;3.40;;;;;;;;;;5005783;28;20179;-74
2023/04/20 01:10:18;;;;;;;5.83;4.10;;;;;;;;;;5010030;28;20527;-74
2023/04/20 01:12:44;;;;;;;4.53;3.70;;;;;;;;;;5009362;28;20186;-74
2023/04/20 01:15:11;;;;;;;6.67;3.63;;;;;;;;;;5011046;28;20203;-74
2023/04/20 01:17:38;;;;;;;7.37;4.40;;;;;;;;;;4993616;28;20261;-74
2023/04/20 01:20:08;;;;;;;5.03;3.90;;;;;;;;;;4998257;28;20302;-74
2023/04/20 01:22:34;;;;;;;6.13;4.27;;;;;;;;;;4993135;28;20195;-75
2023/04/20 01:25:00;;;;;;;6.37;4.30;;;;;;;;;;5009832;28;20204;-74
2023/04/20 01:27:26;;;;;;;5.73;3.90;;;;;;;;;;5009453;28;20267;-74
2023/04/20 01:29:52;;;;;;;6.43;4.30;;;;;;;;;;5010713;28;20262;-74
2023/04/20 01:32:19;;;;;;;5.93;4.30;;;;;;;;;;5010003;28;20213;-74
2023/04/20 01:34:45;;;;;;;5.03;3.50;;;;;;;;;;5008309;28;20281;-74
2023/04/20 01:37:11;;;;;;;5.77;4.10;;;;;;;;;;5009625;28;20176;-74
2023/04/20 01:39:39;;;;;;;7.50;4.50;;;;;;;;;;5009197;28;20206;-74
2023/04/20 01:42:05;;;;;;;5.53;4.30;;;;;;;;;;5010445;28;20210;-74
2023/04/20 01:44:32;;;;;;;4.73;4.23;;;;;;;;;;4993369;28;20675;-74
2023/04/20 01:46:59;;;;;;;6.90;4.77;;;;;;;;;;5008644;28;20651;-74
2023/04/20 01:49:25;;;;;;;5.27;4.30;;;;;;;;;;5004424;28;20199;-74
2023/04/20 01:51:51;;;;;;;4.53;3.90;;;;;;;;;;5001547;28;20183;-74
2023/04/20 01:54:17;;;;;;;5.07;3.80;;;;;;;;;;5009234;28;20226;-74
2023/04/20 01:56:44;;;;;;;5.17;3.80;;;;;;;;;;5010813;28;20706;-74
2023/04/20 01:59:10;;;;;;;5.37;3.73;;;;;;;;;;4993094;28;20208;-75
2023/04/20 02:01:36;;;;;;;4.60;3.67;;;;;;;;;;5009570;28;20187;-74
2023/04/20 02:04:02;;;;;;;5.23;3.33;;;;;;;;;;5008785;28;20179;-74
2023/04/20 02:06:28;;;;;;;4.57;3.70;;;;;;;;;;4996864;28;20183;-74
2023/04/20 02:08:54;;;;;;;5.50;4.30;;;;;;;;;;5013040;28;20388;-74
2023/04/20 02:11:21;;;;;;;6.30;4.70;;;;;;;;;;5013088;28;20182;-74
2023/04/20 02:13:47;;;;;;;7.87;4.40;;;;;;;;;;4996746;28;20184;-74
2023/04/20 02:16:13;;;;;;;5.77;4.67;;;;;;;;;;4993876;28;20217;-74
2023/04/20 02:18:40;;;;;;;6.37;4.90;;;;;;;;;;4999788;28;20229;-74
2023/04/20 02:21:06;;;;;;;6.60;4.43;;;;;;;;;;5012185;28;20250;-74
2023/04/20 02:23:32;;;;;;;7.33;5.27;;;;;;;;;;5006406;28;20242;-75
2023/04/20 02:25:58;;;;;;;7.00;4.87;;;;;;;;;;4999061;28;20616;-74
2023/04/20 02:28:25;;;;;;;6.70;5.10;;;;;;;;;;5005799;28;20194;-74
2023/04/20 02:30:51;;;;;;;5.57;4.77;;;;;;;;;;4965379;28;20187;-73
2023/04/20 02:33:19;;;;;;;6.70;4.83;;;;;;;;;;5009803;28;20206;-74
2023/04/20 02:35:46;;;;;;;6.67;4.67;;;;;;;;;;5011789;28;20219;-74
2023/04/20 02:38:12;;;;;;;7.90;4.70;;;;;;;;;;5013089;28;20180;-74
2023/04/20 02:40:38;;;;;;;5.70;4.67;;;;;;;;;;4997375;28;20240;-74
2023/04/20 02:43:05;;;;;;;5.20;4.60;;;;;;;;;;4997876;28;20179;-74
2023/04/20 02:45:32;;;;;;;5.07;4.20;;;;;;;;;;4996349;28;20195;-76
2023/04/20 02:47:59;;;;;;;6.73;4.43;;;;;;;;;;5011865;28;20175;-74
2023/04/20 02:50:28;;;;;;;4.73;4.23;;;;;;;;;;5012540;28;20187;-74
2023/04/20 02:53:11;;;;;;;4.63;3.97;;;;;;;;;;4997676;28;20206;-74
2023/04/20 02:55:38;;;;;;;5.53;3.87;;;;;;;;;;5012198;28;20214;-74
2023/04/20 02:58:16;;;;;;;6.53;4.33;;;;;;;;;;4990109;28;20226;-74
2023/04/20 03:01:06;;;;;;;8.47;4.50;;;;;;;;;;5005796;28;20211;-74
2023/04/20 03:03:33;;;;;;;5.23;4.30;;;;;;;;;;5010031;28;20175;-74
2023/04/20 03:05:59;;;;;;;5.43;4.27;;;;;;;;;;5011632;28;20199;-74
2023/04/20 03:08:26;;;;;;;6.57;4.60;;;;;;;;;;5011643;28;20210;-74
2023/04/20 03:10:54;;;;;;;6.00;4.37;;;;;;;;;;4991720;28;20196;-74
2023/04/20 03:13:20;;;;;;;6.37;4.60;;;;;;;;;;5002638;28;20263;-74
2023/04/20 03:15:56;;;;;;;6.37;4.80;;;;;;;;;;4987986;28;20290;-76
2023/04/20 03:18:29;;;;;;;6.97;4.83;;;;;;;;;;4997307;28;20549;-76
2023/04/20 03:20:55;;;;;;;6.20;4.80;;;;;;;;;;5011626;28;20214;-76
2023/04/20 03:23:22;;;;;;;7.87;5.37;;;;;;;;;;5011306;28;20186;-76
2023/04/20 03:25:49;;;;;;;7.70;4.93;;;;;;;;;;4997030;28;20196;-76
2023/04/20 03:28:39;;;;;;;5.33;4.60;;;;;;;;;;4992049;28;20229;-74
2023/04/20 03:31:05;;;;;;;6.57;4.70;;;;;;;;;;4991627;28;20280;-74
2023/04/20 03:33:32;;;;;;;6.33;4.60;;;;;;;;;;5000803;28;20269;-74
2023/04/20 03:35:59;;;;;;;9.80;4.70;;;;;;;;;;5011255;28;20223;-74
2023/04/20 03:38:25;;;;;;;7.40;4.47;;;;;;;;;;5011470;28;20203;-74
2023/04/20 03:40:53;;;;;;;10.17;5.00;;;;;;;;;;4994655;28;20218;-74
2023/04/20 03:43:19;;;;;;;7.47;5.00;;;;;;;;;;5010965;28;20186;-74
2023/04/20 03:45:45;;;;;;;6.67;4.50;;;;;;;;;;4971163;28;20345;-73
2023/04/20 03:48:11;;;;;;;7.10;4.23;;;;;;;;;;5012340;28;20640;-74
2023/04/20 03:50:38;;;;;;;7.30;4.93;;;;;;;;;;5011571;28;20680;-74
2023/04/20 03:53:04;;;;;;;6.03;4.23;;;;;;;;;;5010579;28;20198;-74
2023/04/20 03:55:31;;;;;;;6.03;4.57;;;;;;;;;;5011093;28;20746;-74
2023/04/20 03:58:02;;;;;;;7.07;4.70;;;;;;;;;;5010463;28;20191;-74
2023/04/20 04:00:37;;;;;;;8.07;4.80;;;;;;;;;;5010565;28;20634;-74
2023/04/20 04:03:09;;;;;;;7.37;4.90;;;;;;;;;;5010649;28;20622;-74
2023/04/20 04:05:35;;;;;;;7.20;4.60;;;;;;;;;;5010770;28;20740;-74
2023/04/20 04:08:02;;;;;;;5.60;4.47;;;;;;;;;;4993332;28;20236;-74
2023/04/20 04:10:29;;;;;;;7.20;4.93;;;;;;;;;;5010668;28;20225;-74
2023/04/20 04:12:56;;;;;;;8.63;4.87;;;;;;;;;;5011588;28;20195;-74
2023/04/20 04:15:22;;;;;;;4.87;4.17;;;;;;;;;;5010307;28;20214;-74
2023/04/20 04:17:58;;;;;;;5.90;4.70;;;;;;;;;;5010722;28;20594;-74
2023/04/20 04:20:24;;;;;;;6.90;4.67;;;;;;;;;;5010645;28;20206;-75
2023/04/20 04:22:51;;;;;;;6.20;4.73;;;;;;;;;;5006673;28;20191;-74
2023/04/20 04:25:39;;;;;;;6.87;4.37;;;;;;;;;;5003101;28;20686;-73
2023/04/20 04:28:07;;;;;;;6.47;4.20;;;;;;;;;;5006576;28;20187;-74
2023/04/20 04:30:36;;;;;;;6.83;4.60;;;;;;;;;;4974751;28;20196;-74
2023/04/20 04:33:03;;;;;;;7.87;4.87;;;;;;;;;;4990312;28;20215;-74
2023/04/20 04:35:32;;;;;;;6.80;4.77;;;;;;;;;;4991339;28;20264;-75
2023/04/20 04:37:58;;;;;;;6.93;4.60;;;;;;;;;;4993412;28;20277;-74
2023/04/20 04:40:24;;;;;;;10.10;5.10;;;;;;;;;;4991739;28;20249;-74
2023/04/20 04:42:54;;;;;;;8.60;5.00;;;;;;;;;;5007007;28;20183;-74
2023/04/20 04:45:20;;;;;;;6.17;4.97;;;;;;;;;;5002141;28;20196;-74
2023/04/20 04:47:46;;;;;;;8.10;5.43;;;;;;;;;;4987587;28;20183;-74
2023/04/20 04:50:12;;;;;;;6.63;5.20;;;;;;;;;;4994375;28;20195;-75
2023/04/20 04:52:39;;;;;;;8.47;5.43;;;;;;;;;;4993648;28;20229;-75
2023/04/20 04:55:08;;;;;;;9.93;5.37;;;;;;;;;;5009204;28;20887;-74
2023/04/20 04:57:34;;;;;;;9.27;5.83;;;;;;;;;;5010491;28;20702;-75
2023/04/20 05:00:00;;;;;;;8.30;5.33;;;;;;;;;;5010148;28;20278;-75
2023/04/20 05:02:27;;;;;;;7.83;5.33;;;;;;;;;;5010885;28;20171;-75
2023/04/20 05:04:53;;;;;;;7.00;5.17;;;;;;;;;;4993802;28;20569;-74
2023/04/20 05:07:20;;;;;;;6.60;4.97;;;;;;;;;;5006904;28;20266;-75
2023/04/20 05:09:46;;;;;;;10.20;7.60;;;;;;;;;;5009248;28;20658;-75
2023/04/20 05:12:12;;;;;;;6.50;5.73;;;;;;;;;;4993402;28;20194;-74
2023/04/20 05:14:38;;;;;;;9.97;6.07;;;;;;;;;;5009852;28;20199;-74
2023/04/20 05:17:04;;;;;;;6.27;5.10;;;;;;;;;;4993658;28;20651;-74
2023/04/20 05:19:30;;;;;;;5.63;4.67;;;;;;;;;;5009711;28;20293;-74
2023/04/20 05:21:56;;;;;;;6.73;5.23;;;;;;;;;;5011072;28;20222;-74
2023/04/20 05:24:22;;;;;;;10.50;5.80;;;;;;;;;;5008531;28;20289;-74
2023/04/20 05:26:49;;;;;;;7.17;5.30;;;;;;;;;;5010088;28;20237;-74
2023/04/20 05:29:15;;;;;;;8.67;5.67;;;;;;;;;;5010969;28;20171;-74
2023/04/20 05:31:41;;;;;;;6.17;5.10;;;;;;;;;;5009668;28;20305;-74
2023/04/20 05:34:07;;;;;;;8.07;5.10;;;;;;;;;;5009155;28;20245;-74
2023/04/20 05:36:33;;;;;;;7.70;5.50;;;;;;;;;;5009722;28;20624;-74
2023/04/20 05:39:00;;;;;;;6.60;4.80;;;;;;;;;;5010742;28;20249;-74
2023/04/20 05:41:26;;;;;;;8.83;5.30;;;;;;;;;;5007584;28;20191;-74
2023/04/20 05:43:55;;;;;;;6.63;4.87;;;;;;;;;;5013041;28;20191;-74
2023/04/20 05:46:22;;;;;;;7.10;4.90;;;;;;;;;;5006796;28;20195;-74
2023/04/20 05:48:48;;;;;;;6.90;5.13;;;;;;;;;;5005867;28;20179;-77
2023/04/20 05:51:15;;;;;;;9.50;5.50;;;;;;;;;;5001281;28;20183;-76
2023/04/20 05:53:41;;;;;;;7.40;5.20;;;;;;;;;;4994794;28;20278;-76
2023/04/20 05:56:07;;;;;;;8.53;5.70;;;;;;;;;;4999504;28;20220;-76
2023/04/20 05:58:36;;;;;;;6.03;5.20;;;;;;;;;;5005372;28;20191;-75
2023/04/20 06:01:03;;;;;;;9.57;5.40;;;;;;;;;;4992332;28;20314;-75
2023/04/20 06:03:29;;;;;;;5.77;4.60;;;;;;;;;;5005574;28;20287;-75
2023/04/20 06:05:55;;;;;;;9.90;5.93;;;;;;;;;;4993235;28;20217;-74
2023/04/20 06:08:22;;;;;;;8.43;5.20;;;;;;;;;;5004587;28;20210;-77
2023/04/20 06:10:48;;;;;;;11.60;8.13;;;;;;;;;;4992958;28;20199;-77
2023/04/20 06:13:14;;;;;;;6.93;5.77;;;;;;;;;;4997082;28;20206;-77
2023/04/20 06:15:40;;;;;;;7.13;5.33;;;;;;;;;;5012961;28;20217;-77
2023/04/20 06:18:06;;;;;;;5.83;4.67;;;;;;;;;;5014281;28;20194;-77
2023/04/20 06:20:32;;;;;;;6.57;5.27;;;;;;;;;;4994325;28;20219;-75
2023/04/20 06:22:58;;;;;;;10.00;5.53;;;;;;;;;;4999538;28;20176;-76
2023/04/20 06:25:24;;;;;;;7.07;5.17;;;;;;;;;;4985007;28;20203;-75
2023/04/20 06:27:50;;;;;;;10.73;5.77;;;;;;;;;;5013142;28;20179;-75
2023/04/20 06:30:17;;;;;;;8.63;5.60;;;;;;;;;;4998197;28;20191;-75
2023/04/20 06:32:43;;;;;;;6.63;5.40;;;;;;;;;;4979719;28;20183;-76
2023/04/20 06:35:09;;;;;;;7.73;5.67;;;;;;;;;;5006474;28;20219;-75
2023/04/20 06:37:35;;;;;;;7.83;5.53;;;;;;;;;;5004763;28;20199;-75
2023/04/20 06:40:06;;;;;;;7.77;5.10;;;;;;;;;;5002204;28;20212;-76
2023/04/20 06:42:32;;;;;;;6.87;5.37;;;;;;;;;;5003907;28;20182;-75
2023/04/20 06:44:59;;;;;;;7.33;5.93;;;;;;;;;;4998381;28;20203;-75
2023/04/20 06:47:30;;;;;;;8.63;6.40;;;;;;;;;;5001090;28;20211;-75
2023/04/20 06:49:57;;;;;;;6.80;5.63;;;;;;;;;;4998205;28;20183;-75
2023/04/20 06:52:23;;;;;;;8.57;5.90;;;;;;;;;;5009333;28;20275;-79
2023/04/20 06:54:49;;;;;;;8.70;6.27;;;;;;;;;;5009793;28;20253;-75
2023/04/20 06:57:15;;;;;;;8.03;5.70;;;;;;;;;;5011022;28;20187;-75
2023/04/20 06:59:42;;;;;;;7.43;6.07;;;;;;;;;;4992054;28;20203;-75
2023/04/20 07:02:08;;;;;;;8.67;6.10;;;;;;;;;;5010186;28;20179;-75
2023/04/20 07:04:34;;;;;;;8.53;5.77;;;;;;;;;;5013219;28;20573;-74
2023/04/20 07:07:00;;;;;;;7.67;5.80;;;;;;;;;;4997628;28;20199;-75
2023/04/20 07:09:26;;;;;;;7.70;5.33;;;;;;;;;;4992116;28;20188;-75
2023/04/20 07:11:52;;;;;;;6.20;5.30;;;;;;;;;;5012379;28;20245;-74
2023/04/20 07:14:19;;;;;;;8.07;6.17;;;;;;;;;;5004993;28;20287;-74
2023/04/20 07:16:45;;;;;;;6.77;5.27;;;;;;;;;;5010234;28;20207;-75
2023/04/20 07:19:11;;;;;;;8.73;5.77;;;;;;;;;;4993073;28;20202;-75
2023/04/20 07:21:37;;;;;;;6.63;5.70;;;;;;;;;;5011314;28;20266;-74
2023/04/20 07:24:03;;;;;;;8.30;6.17;;;;;;;;;;5010077;28;20253;-74
2023/04/20 07:26:30;;;;;;;8.40;5.93;;;;;;;;;;5009271;28;20651;-74
2023/04/20 07:28:56;;;;;;;8.20;5.90;;;;;;;;;;5012822;28;20550;-74
2023/04/20 07:31:22;;;;;;;10.33;5.90;;;;;;;;;;5012605;28;20191;-74
2023/04/20 07:33:48;;;;;;;6.83;5.80;;;;;;;;;;5010913;28;20198;-74
2023/04/20 07:36:14;;;;;;;8.03;5.70;;;;;;;;;;5012675;28;20671;-75
2023/04/20 07:38:40;;;;;;;9.20;6.43;;;;;;;;;;5009334;28;20295;-74
2023/04/20 07:41:09;;;;;;;10.63;6.27;;;;;;;;;;5012425;28;20211;-75
2023/04/20 07:43:36;;;;;;;8.17;5.70;;;;;;;;;;5012320;28;20260;-74
2023/04/20 07:46:02;;;;;;;7.20;5.93;;;;;;;;;;5007589;28;20207;-74
2023/04/20 07:48:28;;;;;;;9.23;7.53;;;;;;;;;;5008107;28;20269;-74
2023/04/20 07:50:54;;;;;;;10.37;6.00;;;;;;;;;;5012527;28;20654;-74
2023/04/20 07:53:20;;;;;;;8.93;6.13;;;;;;;;;;5012148;28;20176;-74
2023/04/20 07:55:46;;;;;;;9.63;5.40;;;;;;;;;;5009280;28;20209;-74
2023/04/20 07:58:15;;;;;;;9.10;5.67;;;;;;;;;;5012368;28;20191;-75
2023/04/20 08:00:41;;;;;;;7.17;5.67;;;;;;;;;;5009488;28;20214;-75
2023/04/20 08:03:07;;;;;;;9.13;5.70;;;;;;;;;;5009315;28;20213;-75
2023/04/20 08:05:33;;;;;;;8.63;5.73;;;;;;;;;;5007625;28;20207;-74
2023/04/20 08:07:59;;;;;;;7.13;5.90;;;;;;;;;;4992374;28;20271;-74
2023/04/20 08:10:26;;;;;;;7.93;5.40;;;;;;;;;;4992444;28;20183;-74
2023/04/20 08:12:52;;;;;;;7.20;5.50;;;;;;;;;;4993596;28;20251;-75
2023/04/20 08:15:18;;;;;;;6.73;5.27;;;;;;;;;;5009607;28;20269;-74
2023/04/20 08:17:44;;;;;;;6.77;5.40;;;;;;;;;;5011958;28;20187;-75
2023/04/20 08:20:11;;;;;;;6.50;5.30;;;;;;;;;;4996906;28;20843;-75
2023/04/20 08:22:37;;;;;;;6.20;5.30;;;;;;;;;;5008690;28;20240;-75
2023/04/20 08:25:04;;;;;;;7.30;5.83;;;;;;;;;;5007558;28;20290;-74
2023/04/20 08:27:31;;;;;;;6.60;5.40;;;;;;;;;;5011840;28;20195;-75
2023/04/20 08:29:57;;;;;;;5.67;5.13;;;;;;;;;;5011621;28;20222;-75
2023/04/20 08:32:25;;;;;;;8.10;5.43;;;;;;;;;;5005671;28;20722;-74
2023/04/20 08:34:52;;;;;;;6.97;5.30;;;;;;;;;;5011416;28;20229;-74
2023/04/20 08:37:18;;;;;;;6.13;5.37;;;;;;;;;;5004922;28;20190;-74
2023/04/20 08:39:45;;;;;;;8.20;5.67;;;;;;;;;;4999276;28;20238;-75
2023/04/20 08:42:11;;;;;;;8.83;6.07;;;;;;;;;;4998566;28;20302;-75
2023/04/20 08:44:37;;;;;;;7.63;5.53;;;;;;;;;;5010972;28;20199;-75
2023/04/20 08:47:04;;;;;;;7.53;5.50;;;;;;;;;;4985994;28;20224;-75
2023/04/20 08:49:30;;;;;;;6.93;5.10;;;;;;;;;;5005048;28;20187;-75
2023/04/20 08:51:56;;;;;;;6.83;5.00;;;;;;;;;;4997852;28;20191;-75
2023/04/20 08:54:22;;;;;;;6.33;5.30;;;;;;;;;;5011024;28;20203;-75
2023/04/20 08:56:49;;;;;;;5.37;4.73;;;;;;;;;;4990960;28;20722;-76
2023/04/20 08:59:15;;;;;;;6.70;5.17;;;;;;;;;;5004869;28;20237;-74
2023/04/20 09:01:42;;;;;;;7.33;5.23;;;;;;;;;;5010225;28;20571;-75
2023/04/20 09:04:35;;;;;;;6.67;5.10;;;;;;;;;;5009281;28;20234;-75
2023/04/20 09:07:01;;;;;;;6.50;4.83;;;;;;;;;;5004912;28;20730;-75
2023/04/20 09:09:28;;;;;;;4.93;4.40;;;;;;;;;;4999418;28;20619;-75
2023/04/20 09:12:03;;;;;;;6.13;4.20;;;;;;;;;;5005256;28;20229;-74
2023/04/20 09:14:29;;;;;;;8.27;4.93;;;;;;;;;;5010817;28;20576;-74
2023/04/20 09:17:01;;;;;;;6.00;4.60;;;;;;;;;;5013833;28;20218;-74
2023/04/20 09:19:28;;;;;;;8.97;4.93;;;;;;;;;;5014737;28;20223;-74
2023/04/20 09:21:55;;;;;;;7.17;5.80;;;;;;;;;;5008350;28;20187;-75
2023/04/20 09:24:22;;;;;;;6.80;5.37;;;;;;;;;;4995101;28;20202;-75
2023/04/20 09:26:48;;;;;;;6.17;5.47;;;;;;;;;;5000504;28;20588;-75
2023/04/20 09:29:19;;;;;;;7.73;5.57;;;;;;;;;;5015101;28;20642;-74
2023/04/20 09:31:45;;;;;;;8.80;5.50;;;;;;;;;;5013847;28;20191;-74
2023/04/20 09:34:12;;;;;;;6.40;5.10;;;;;;;;;;5011640;28;20230;-76
2023/04/20 09:36:45;;;;;;;5.90;5.10;;;;;;;;;;5006464;28;20202;-75
2023/04/20 09:39:16;;;;;;;8.90;5.97;;;;;;;;;;5001564;28;20199;-75
2023/04/20 09:41:43;;;;;;;7.03;5.33;;;;;;;;;;5006696;28;20698;-75
2023/04/20 09:44:09;;;;;;;6.50;4.83;;;;;;;;;;5013032;28;20187;-75
2023/04/20 09:46:36;;;;;;;11.17;5.73;;;;;;;;;;5013455;28;20186;-75
2023/04/20 09:49:04;;;;;;;5.77;4.70;;;;;;;;;;5013251;28;20706;-75
2023/04/20 09:51:31;;;;;;;5.33;4.80;;;;;;;;;;5008518;28;20191;-75
2023/04/20 09:53:58;;;;;;;6.17;4.33;;;;;;;;;;5011423;28;20188;-75
2023/04/20 09:56:24;;;;;;;6.33;5.53;;;;;;;;;;5005817;28;20183;-76
2023/04/20 09:58:51;;;;;;;6.67;4.30;;;;;;;;;;5008335;28;20193;-76
2023/04/20 10:01:18;;;;;;;4.93;4.43;;;;;;;;;;5011965;28;20218;-75
2023/04/20 10:03:45;;;;;;;9.73;4.60;;;;;;;;;;5007942;28;20187;-76
2023/04/20 10:06:31;;;;;;;8.50;4.60;;;;;;;;;;5002405;28;20287;-74
2023/04/20 10:08:58;;;;;;;5.77;4.80;;;;;;;;;;4989490;28;20722;-75
2023/04/20 10:11:39;;;;;;;5.30;4.43;;;;;;;;;;5008412;28;20246;-73
2023/04/20 10:14:16;;;;;;;5.90;4.57;;;;;;;;;;5004803;28;20188;-75
2023/04/20 10:16:42;;;;;;;6.57;4.73;;;;;;;;;;4994365;28;20291;-76
2023/04/20 10:19:09;;;;;;;6.43;5.20;;;;;;;;;;5006568;28;20198;-74
2023/04/20 10:21:44;;;;;;;5.77;5.07;;;;;;;;;;5012505;28;20180;-72
2023/04/20 10:24:10;;;;;;;5.90;5.10;;;;;;;;;;5012892;28;20210;-74
2023/04/20 10:26:37;;;;;;;4.90;4.30;;;;;;;;;;4994569;28;20195;-73
2023/04/20 10:29:03;;;;;;;5.77;3.90;;;;;;;;;;5010879;28;20191;-73
2023/04/20 10:31:40;;;;;;;4.83;3.87;;;;;;;;;;5009170;28;20202;-74
2023/04/20 10:34:07;;;;;;;7.27;4.33;;;;;;;;;;5000521;28;20208;-76
2023/04/20 10:36:36;;;;;;;4.30;3.90;;;;;;;;;;5010647;28;20187;-76
2023/04/20 10:39:14;;;;;;;5.47;4.37;;;;;;;;;;5005934;28;20647;-75
2023/04/20 10:41:53;;;;;;;5.27;4.40;;;;;;;;;;5012576;28;20197;-76
2023/04/20 10:44:20;;;;;;;5.23;4.10;;;;;;;;;;5013271;28;20214;-75
2023/04/20 10:46:50;;;;;;;4.37;3.97;;;;;;;;;;5009025;28;20265;-75
2023/04/20 10:49:17;;;;;;;6.83;4.03;;;;;;;;;;5005476;28;20198;-75
2023/04/20 10:51:47;;;;;;;5.57;4.10;;;;;;;;;;4994350;28;20246;-75
2023/04/20 10:54:13;;;;;;;5.13;4.17;;;;;;;;;;4992163;28;20682;-75
2023/04/20 10:56:40;;;;;;;6.13;3.87;;;;;;;;;;4993952;28;20179;-76
2023/04/20 10:59:11;;;;;;;4.23;3.80;;;;;;;;;;5007290;28;20291;-78
2023/04/20 11:01:37;;;;;;;5.53;4.13;;;;;;;;;;5013529;28;20548;-77
2023/04/20 11:04:04;;;;;;;4.73;3.83;;;;;;;;;;5014862;28;20630;-78
2023/04/20 11:06:31;;;;;;;4.57;3.80;;;;;;;;;;5013807;28;20172;-77
2023/04/20 11:08:57;;;;;;;4.57;3.73;;;;;;;;;;5010075;28;20176;-78
2023/04/20 11:11:26;;;;;;;3.97;3.57;;;;;;;;;;5015149;28;20215;-78
2023/04/20 11:13:52;;;;;;;5.47;4.50;;;;;;;;;;5011706;28;20179;-79
2023/04/20 11:16:19;;;;;;;5.20;3.90;;;;;;;;;;5007401;28;20297;-78
2023/04/20 11:18:55;;;;;;;4.13;3.70;;;;;;;;;;4987327;28;20193;-79
2023/04/20 11:21:21;;;;;;;7.93;4.63;;;;;;;;;;5009134;28;20225;-79
2023/04/20 11:23:48;;;;;;;6.50;4.77;;;;;;;;;;5007948;28;20271;-79
2023/04/20 11:26:14;;;;;;;5.33;4.20;;;;;;;;;;5013719;28;20230;-79
2023/04/20 11:28:54;;;;;;;4.33;3.93;;;;;;;;;;4998298;28;20675;-81
2023/04/20 11:31:20;;;;;;;4.30;3.90;;;;;;;;;;5002412;28;20191;-75
2023/04/20 11:33:46;;;;;;;8.00;4.50;;;;;;;;;;5005864;28;20195;-75
2023/04/20 11:36:19;;;;;;;7.03;4.00;;;;;;;;;;5012394;28;20215;-75
2023/04/20 11:38:45;;;;;;;5.10;4.30;;;;;;;;;;5009393;28;20191;-74
2023/04/20 11:41:11;;;;;;;4.97;3.97;;;;;;;;;;5010977;28;20218;-75
2023/04/20 11:43:37;;;;;;;4.30;3.90;;;;;;;;;;5010529;28;20195;-75
2023/04/20 11:46:12;;;;;;;4.30;3.90;;;;;;;;;;5008035;28;20206;-75
2023/04/20 11:48:38;;;;;;;4.63;3.90;;;;;;;;;;5002950;28;20206;-74
2023/04/20 11:51:04;;;;;;;5.70;4.00;;;;;;;;;;4999445;28;20203;-75
2023/04/20 11:53:30;;;;;;;4.87;4.00;;;;;;;;;;5012693;28;20212;-75
2023/04/20 11:55:56;;;;;;;4.40;3.90;;;;;;;;;;5013309;28;20580;-74
2023/04/20 11:58:22;;;;;;;4.67;4.20;;;;;;;;;;5020454;28;20183;-75
2023/04/20 12:00:48;;;;;;;4.30;3.90;;;;;;;;;;5019868;28;20214;-75
2023/04/20 12:03:15;;;;;;;4.50;4.00;;;;;;;;;;5005741;28;20184;-75
2023/04/20 12:05:42;;;;;;;5.67;4.00;;;;;;;;;;5016658;28;20289;-75
2023/04/20 12:08:08;;;;;;;4.67;3.67;;;;;;;;;;5020891;28;20182;-75
2023/04/20 12:10:34;;;;;;;5.70;4.83;;;;;;;;;;5013089;28;20262;-74
2023/04/20 12:13:00;;;;;;;5.33;4.50;;;;;;;;;;5014443;28;20274;-74
2023/04/20 12:15:27;;;;;;;5.70;4.53;;;;;;;;;;5009203;28;20282;-74
2023/04/20 12:17:53;;;;;;;5.23;4.47;;;;;;;;;;5014311;28;20183;-75
2023/04/20 12:20:19;;;;;;;5.33;4.30;;;;;;;;;;5015388;28;20218;-75
2023/04/20 12:22:45;;;;;;;8.87;4.40;;;;;;;;;;5011212;28;20781;-75
2023/04/20 12:25:13;;;;;;;6.03;5.07;;;;;;;;;;5005523;28;20204;-75
2023/04/20 12:27:43;;;;;;;4.97;4.47;;;;;;;;;;5022366;28;20175;-75
2023/04/20 12:30:09;;;;;;;5.37;4.87;;;;;;;;;;5014557;28;20826;-75
2023/04/20 12:32:35;;;;;;;5.10;4.47;;;;;;;;;;5004804;28;20289;-74
2023/04/20 12:35:01;;;;;;;5.23;4.57;;;;;;;;;;5019652;28;20352;-74
2023/04/20 12:37:28;;;;;;;4.70;4.00;;;;;;;;;;5020859;28;20197;-75
2023/04/20 12:39:54;;;;;;;5.70;4.00;;;;;;;;;;5019036;28;20640;-74
2023/04/20 12:42:20;;;;;;;5.47;4.20;;;;;;;;;;5017214;28;20229;-74
2023/04/20 12:44:48;;;;;;;5.17;4.67;;;;;;;;;;5007698;28;20295;-74
2023/04/20 12:47:17;;;;;;;7.17;5.20;;;;;;;;;;5008617;28;20178;-75
2023/04/20 12:49:43;;;;;;;5.20;4.67;;;;;;;;;;4993789;28;20187;-74
2023/04/20 12:52:10;;;;;;;5.00;4.43;;;;;;;;;;5002004;28;20187;-75
2023/04/20 12:54:36;;;;;;;5.47;4.40;;;;;;;;;;5005651;28;20221;-74
2023/04/20 12:57:02;;;;;;;5.07;4.57;;;;;;;;;;5006077;28;20194;-75
2023/04/20 12:59:28;;;;;;;5.07;4.30;;;;;;;;;;5009205;28;20187;-73
2023/04/20 13:01:54;;;;;;;6.43;4.20;;;;;;;;;;5002697;28;20188;-75
2023/04/20 13:04:20;;;;;;;4.50;3.93;;;;;;;;;;5003473;28;20207;-75
2023/04/20 13:06:48;;;;;;;6.60;4.00;;;;;;;;;;5005856;28;20265;-75
2023/04/20 13:09:14;;;;;;;5.97;3.77;;;;;;;;;;5009979;28;20188;-75
2023/04/20 13:11:40;;;;;;;4.10;3.70;;;;;;;;;;5010318;28;20190;-75
2023/04/20 13:14:06;;;;;;;6.30;3.67;;;;;;;;;;5002527;28;20282;-74
2023/04/20 13:16:32;;;;;;;4.40;3.70;;;;;;;;;;5002420;28;20198;-75
2023/04/20 13:18:58;;;;;;;4.53;3.40;;;;;;;;;;5005487;28;20183;-75
2023/04/20 13:21:24;;;;;;;4.27;3.47;;;;;;;;;;5009211;28;20230;-75
2023/04/20 13:23:51;;;;;;;4.27;3.30;;;;;;;;;;4995572;28;20621;-75
2023/04/20 13:26:17;;;;;;;5.83;4.30;;;;;;;;;;4986940;28;20297;-75
2023/04/20 13:28:43;;;;;;;3.50;3.17;;;;;;;;;;5003358;28;20219;-76
2023/04/20 13:31:10;;;;;;;4.17;3.70;;;;;;;;;;5008760;28;20194;-76
2023/04/20 13:33:36;;;;;;;4.20;3.80;;;;;;;;;;5017737;28;20245;-76
2023/04/20 13:36:02;;;;;;;5.47;3.97;;;;;;;;;;5014926;28;20310;-75
2023/04/20 13:38:28;;;;;;;4.63;4.07;;;;;;;;;;5013260;28;20619;-75
2023/04/20 13:40:55;;;;;;;5.07;4.10;;;;;;;;;;4999516;28;20211;-75
2023/04/20 13:43:21;;;;;;;5.63;4.90;;;;;;;;;;5000341;28;20199;-74
2023/04/20 13:45:47;;;;;;;6.13;4.47;;;;;;;;;;4997003;28;20209;-75
2023/04/20 13:48:13;;;;;;;6.60;4.83;;;;;;;;;;5001093;28;20187;-75
2023/04/20 13:50:39;;;;;;;5.40;4.90;;;;;;;;;;5004309;28;20530;-74
2023/04/20 13:53:05;;;;;;;7.17;5.57;;;;;;;;;;5004726;28;20748;-74
2023/04/20 13:55:32;;;;;;;5.23;4.70;;;;;;;;;;4991889;28;20207;-74
2023/04/20 13:57:58;;;;;;;4.67;4.17;;;;;;;;;;5007507;28;20187;-75
2023/04/20 14:00:24;;;;;;;7.00;5.10;;;;;;;;;;5003002;28;20225;-74
2023/04/20 14:02:51;;;;;;;5.00;4.50;;;;;;;;;;5011820;28;20328;-74
2023/04/20 14:05:18;;;;;;;4.70;4.03;;;;;;;;;;5015136;28;20199;-75
2023/04/20 14:07:45;;;;;;;5.83;4.50;;;;;;;;;;5015309;28;20189;-75
2023/04/20 14:10:12;;;;;;;8.77;7.67;;;;;;;;;;5017735;28;20193;-75
2023/04/20 14:12:39;;;;;;;8.20;7.10;;;;;;;;;;5018832;28;20575;-73
2023/04/20 14:15:06;;;;;;;7.30;5.27;;;;;;;;;;5018590;28;20215;-74
2023/04/20 14:17:33;;;;;;;7.50;4.63;;;;;;;;;;5018424;28;20296;-74
2023/04/20 14:20:00;;;;;;;5.27;4.70;;;;;;;;;;5019652;28;20210;-74
2023/04/20 14:22:33;;;;;;;5.27;4.60;;;;;;;;;;5023676;28;20207;-74
2023/04/20 14:25:00;;;;;;;5.23;4.50;;;;;;;;;;5015201;28;20687;-74
2023/04/20 14:27:27;;;;;;;6.10;4.87;;;;;;;;;;5018041;28;20187;-74
2023/04/20 14:29:53;;;;;;;4.10;3.70;;;;;;;;;;5017020;28;20285;-74
2023/04/20 14:32:20;;;;;;;4.40;3.60;;;;;;;;;;5019521;28;20179;-73
2023/04/20 14:34:47;;;;;;;8.40;4.83;;;;;;;;;;5019451;28;20229;-73
2023/04/20 14:37:14;;;;;;;6.67;4.60;;;;;;;;;;5020276;28;20631;-74
2023/04/20 14:39:41;;;;;;;4.80;4.17;;;;;;;;;;5014166;28;20214;-73
2023/04/20 14:42:08;;;;;;;4.40;3.90;;;;;;;;;;5016334;28;20175;-73
2023/04/20 14:44:35;;;;;;;5.67;4.03;;;;;;;;;;5018062;28;20230;-73